Waverly, VA

10:40 PM EST on March 02, 2015 (GMT -0500)
Wakefield Municipal | Change Station
CLOSE
Current Station
Airport
Location: Wakefield,
Elevation: 112 ft
Nearby Weather Stations

Elev 112 ft 36.98 °N, 77.01 °W | Updated 46 minutes ago

Clear
Clear
31 °F
Feels Like 31 °F
N
0
Wind Variable Wind from North

Today
High -- | Low -- °F
--% Chance of Precip.
Yesterday
High -- | Low -- °F
Precip. -- in
6:37 AM 6:02 PM
Waxing Gibbous, 94% visible
Pressure 30.41 in
Visibility 10.0 miles
Clouds Clear
Dew Point 28 °F
Humidity 89%
Rainfall 0.01 in
Snow Depth Not available.
UV 0 out of 12
Pollen 7.30 out of 12
Air Quality Not available.
Flu Activity Not available.
METAR KAKQ 030254Z AUTO 00000KT 10SM CLR M01/M02 A3040 RMK AO2 SLP298 T10061022 51022 TSNO

More Conditions Fewer Conditions

Pressure 30.41 in
Visibility 10.0 miles
Clouds Clear
Dew Point 28 °F
Humidity 89%
Rainfall 0.01 in
Snow Depth Not available.
UV 0 out of 12
Pollen 7.30 out of 12
Air Quality Not available.
Flu Activity Not available.
METAR KAKQ 030254Z AUTO 00000KT 10SM CLR M01/M02 A3040 RMK AO2 SLP298 T10061022 51022 TSNO

More Conditions Fewer Conditions

10-Day Weather Forecast

Almanac

Astronomy

Mar. 02, 2015 Rise Set
Actual Time
Civil Twilight
Nautical Twilight
Astronomical Twilight
Moon
Length of Visible Light
Length of Day
Tomorrow will be .
, % of the Moon is Illuminated

Today's Extremes

State Highs State Lows

Community

WunderPhotos

Upload Photos

1,802,060 photos uploaded!

WunderBlogs® & News

Nearby

Air Quality

  Air Quality AQ Index Pollutant
Not available.

Snow Depth

Station Depth Elevation

Earthquake Activity

City Distance Mag. Time & Date
Minimum magnitude displayed is 2.5.

Coastal Water Temperatures

Place Temperature

Nearby Weather Stations